Time;durP1;ratioP1;P1;durP2;ratioP2;P2;SDS_P1;SDS_P2;PMS_P1;PMS_P2;Temp;Humidity;BMP_temperature;BMP_pressure;BME280_temperature;BME280_humidity;BME280_pressure;Samples;Min_cycle;Max_cycle;Signal;HPM_P1;HPM_P2
2023/08/18 00:01:46;;;;;;;13.55;3.50;;;21.00;99.90;;;;;;5098633;28;20062;-72
2023/08/18 00:04:12;;;;;;;5.47;0.80;;;20.90;99.90;;;;;;5102063;28;20024;-72
2023/08/18 00:06:37;;;;;;;0.32;0.32;;;21.00;99.90;;;;;;5105654;28;20039;-72
2023/08/18 00:09:04;;;;;;;1.77;0.80;;;21.20;99.90;;;;;;5105736;28;20035;-72
2023/08/18 00:11:30;;;;;;;0.00;0.00;;;21.00;99.90;;;;;;5112626;28;20032;-72
2023/08/18 00:13:56;;;;;;;0.45;0.45;;;21.00;99.90;;;;;;5101345;28;20103;-72
2023/08/18 00:16:22;;;;;;;0.00;0.00;;;20.90;99.90;;;;;;5097326;28;20043;-72
2023/08/18 00:18:47;;;;;;;1.27;0.98;;;21.00;99.90;;;;;;5099586;28;20024;-83
2023/08/18 00:21:14;;;;;;;0.00;0.00;;;20.80;99.90;;;;;;5100713;28;20020;-72
2023/08/18 00:23:41;;;;;;;2.83;2.60;;;20.80;99.90;;;;;;5103052;28;20020;-72
2023/08/18 00:26:09;;;;;;;0.43;0.43;;;20.90;99.90;;;;;;5104521;28;20448;-78
2023/08/18 00:28:35;;;;;;;0.00;0.00;;;21.20;99.90;;;;;;5094971;28;20039;-72
2023/08/18 00:31:02;;;;;;;0.55;0.55;;;21.00;99.90;;;;;;5093018;28;20020;-72
2023/08/18 00:33:27;;;;;;;0.35;0.35;;;20.80;99.90;;;;;;5094525;28;20020;-74
2023/08/18 00:35:53;;;;;;;0.52;0.52;;;20.90;99.90;;;;;;5094820;28;20384;-71
2023/08/18 00:38:19;;;;;;;1.75;1.65;;;21.10;99.90;;;;;;5086689;28;20031;-72
2023/08/18 00:40:45;;;;;;;0.00;0.00;;;21.10;99.90;;;;;;5076836;28;20031;-72
2023/08/18 00:43:10;;;;;;;0.00;0.00;;;21.20;99.90;;;;;;5094797;28;20126;-72
2023/08/18 00:45:38;;;;;;;0.00;0.00;;;21.20;99.90;;;;;;5076372;28;20053;-73
2023/08/18 00:48:04;;;;;;;0.00;0.00;;;21.20;99.90;;;;;;5093258;28;20380;-72
2023/08/18 00:50:30;;;;;;;0.03;0.03;;;21.30;99.90;;;;;;5094687;28;20095;-72
2023/08/18 00:52:58;;;;;;;0.15;0.15;;;21.20;99.90;;;;;;5093188;28;20125;-82
2023/08/18 00:55:29;;;;;;;0.15;0.15;;;21.10;99.90;;;;;;5093386;28;20115;-72
2023/08/18 00:57:56;;;;;;;0.60;0.60;;;21.00;99.90;;;;;;5094544;28;20036;-73
2023/08/18 01:00:23;;;;;;;0.00;0.00;;;20.90;99.90;;;;;;5094165;28;20103;-75
2023/08/18 01:02:52;;;;;;;0.55;0.55;;;21.00;99.90;;;;;;5089712;28;20023;-72
2023/08/18 01:05:18;;;;;;;0.32;0.32;;;21.20;99.90;;;;;;5088161;28;20016;-85
2023/08/18 01:07:45;;;;;;;0.00;0.00;;;21.20;99.90;;;;;;5092996;28;20071;-73
2023/08/18 01:10:11;;;;;;;0.00;0.00;;;21.00;99.90;;;;;;5073227;28;20027;-72
2023/08/18 01:12:39;;;;;;;0.63;0.63;;;21.00;99.90;;;;;;5092378;28;20119;-72
2023/08/18 01:15:16;;;;;;;0.73;0.73;;;21.20;99.90;;;;;;5092633;28;20020;-75
2023/08/18 01:18:08;;;;;;;0.10;0.10;;;21.10;99.90;;;;;;5094031;28;20376;-72
2023/08/18 01:20:34;;;;;;;5.30;0.68;;;21.30;99.90;;;;;;5084304;28;20048;-72
2023/08/18 01:23:02;;;;;;;0.35;0.35;;;21.30;99.90;;;;;;5092163;28;20134;-74
2023/08/18 01:25:28;;;;;;;0.98;0.98;;;21.20;99.90;;;;;;5092591;28;20123;-79
2023/08/18 01:27:57;;;;;;;2.20;0.90;;;21.20;99.90;;;;;;5092240;28;20051;-72
2023/08/18 01:30:30;;;;;;;0.57;0.57;;;21.00;99.90;;;;;;5092342;28;20457;-72
2023/08/18 01:33:11;;;;;;;0.28;0.28;;;20.90;99.90;;;;;;5092302;28;20027;-73
2023/08/18 01:35:39;;;;;;;0.90;0.77;;;21.00;99.90;;;;;;5093719;28;20735;-72
2023/08/18 01:38:08;;;;;;;0.00;0.00;;;20.90;99.90;;;;;;5093425;28;20052;-75
2023/08/18 01:40:37;;;;;;;0.52;0.52;;;21.10;99.90;;;;;;5079650;28;20464;-72
2023/08/18 01:43:04;;;;;;;3.25;1.60;;;21.20;99.90;;;;;;5093558;28;20103;-72
2023/08/18 01:45:30;;;;;;;1.50;1.30;;;21.10;99.90;;;;;;5091997;28;20032;-72
2023/08/18 01:47:56;;;;;;;0.85;0.85;;;21.10;99.90;;;;;;5092316;28;20032;-72
2023/08/18 01:50:22;;;;;;;0.85;0.73;;;21.00;99.90;;;;;;5093457;28;20020;-73
2023/08/18 01:52:47;;;;;;;0.20;0.20;;;20.80;99.90;;;;;;5075472;28;20046;-73
2023/08/18 01:55:13;;;;;;;2.10;1.52;;;21.00;99.90;;;;;;5092109;28;20468;-72
2023/08/18 01:57:39;;;;;;;0.38;0.38;;;20.80;99.90;;;;;;5093292;28;20062;-72
2023/08/18 02:00:06;;;;;;;1.00;1.00;;;20.90;99.90;;;;;;5091828;28;20612;-71
2023/08/18 02:02:38;;;;;;;0.28;0.28;;;20.80;99.90;;;;;;5091976;28;20028;-72
2023/08/18 02:05:04;;;;;;;0.40;0.40;;;20.90;99.90;;;;;;5091958;28;20084;-73
2023/08/18 02:07:30;;;;;;;0.22;0.22;;;20.90;99.90;;;;;;5093272;28;20110;-72
2023/08/18 02:09:56;;;;;;;1.13;1.08;;;20.90;99.90;;;;;;5088849;28;20019;-72
2023/08/18 02:12:22;;;;;;;0.52;0.52;;;21.10;99.90;;;;;;5095384;28;20051;-72
2023/08/18 02:14:48;;;;;;;0.20;0.20;;;21.20;99.90;;;;;;5106935;28;20038;-73
2023/08/18 02:17:14;;;;;;;0.00;0.00;;;21.10;99.90;;;;;;5097929;28;20109;-74
2023/08/18 02:19:39;;;;;;;0.45;0.45;;;21.20;99.90;;;;;;5112181;28;20012;-72
2023/08/18 02:22:05;;;;;;;5.60;2.45;;;21.20;99.90;;;;;;5111523;28;20505;-72
2023/08/18 02:24:31;;;;;;;0.60;0.60;;;20.90;99.90;;;;;;5107976;28;20020;-72
2023/08/18 02:26:57;;;;;;;1.38;1.27;;;20.70;99.90;;;;;;5103002;28;20027;-72
2023/08/18 02:29:23;;;;;;;0.00;0.00;;;20.60;99.90;;;;;;5111718;28;20462;-73
2023/08/18 02:31:52;;;;;;;0.00;0.00;;;20.50;99.90;;;;;;5113412;28;20027;-77
2023/08/18 02:34:18;;;;;;;0.32;0.32;;;20.60;99.90;;;;;;5111905;28;20020;-72
2023/08/18 02:36:44;;;;;;;0.88;0.65;;;20.70;99.90;;;;;;5111807;28;20081;-72
2023/08/18 02:39:11;;;;;;;0.30;0.30;;;20.60;99.90;;;;;;5112011;28;20019;-72
2023/08/18 02:41:36;;;;;;;0.28;0.28;;;20.80;99.90;;;;;;5107430;28;20126;-72
2023/08/18 02:44:03;;;;;;;2.35;1.25;;;20.90;99.90;;;;;;5101653;28;20123;-72
2023/08/18 02:46:29;;;;;;;0.20;0.17;;;20.70;99.90;;;;;;5112868;28;20024;-72
2023/08/18 02:48:55;;;;;;;0.00;0.00;;;20.80;99.90;;;;;;5113197;28;20023;-72
2023/08/18 02:51:20;;;;;;;0.32;0.32;;;20.90;99.90;;;;;;5111883;28;20027;-72
2023/08/18 02:53:48;;;;;;;0.55;0.55;;;20.80;99.90;;;;;;5111784;28;20015;-72
2023/08/18 02:56:15;;;;;;;0.17;0.08;;;21.00;99.90;;;;;;5111474;28;20027;-72
2023/08/18 02:58:41;;;;;;;1.00;0.93;;;21.10;99.90;;;;;;5100625;28;20471;-72
2023/08/18 03:01:08;;;;;;;4.10;1.30;;;21.00;99.90;;;;;;5112836;28;20072;-72
2023/08/18 03:03:34;;;;;;;0.30;0.30;;;21.10;99.90;;;;;;5112708;28;20035;-72
2023/08/18 03:06:07;;;;;;;0.05;0.05;;;20.80;99.90;;;;;;5094681;28;20038;-72
2023/08/18 03:08:35;;;;;;;0.90;0.90;;;20.90;99.90;;;;;;5111453;28;20055;-72
2023/08/18 03:11:01;;;;;;;0.00;0.00;;;20.80;99.90;;;;;;5111245;28;20030;-72
2023/08/18 03:13:28;;;;;;;0.00;0.00;;;20.90;99.90;;;;;;5112890;28;20038;-73
2023/08/18 03:15:54;;;;;;;0.00;0.00;;;20.90;99.90;;;;;;5106132;28;20056;-72
2023/08/18 03:18:20;;;;;;;0.00;0.00;;;20.90;99.90;;;;;;5102539;28;20494;-72
2023/08/18 03:20:49;;;;;;;0.00;0.00;;;20.90;99.90;;;;;;5112465;28;20104;-73
2023/08/18 03:23:18;;;;;;;0.52;0.52;;;21.00;99.90;;;;;;5111418;28;20016;-72
2023/08/18 03:25:43;;;;;;;1.33;1.25;;;21.10;99.90;;;;;;5112555;28;20020;-72
2023/08/18 03:28:11;;;;;;;3.05;2.42;;;21.20;99.90;;;;;;5094136;28;20028;-72
2023/08/18 03:30:37;;;;;;;0.05;0.05;;;21.10;99.90;;;;;;5111275;28;20479;-72
2023/08/18 03:33:05;;;;;;;0.63;0.63;;;21.20;99.90;;;;;;5113364;28;20068;-73
2023/08/18 03:35:32;;;;;;;0.00;0.00;;;21.40;99.90;;;;;;5115139;28;20026;-73
2023/08/18 03:38:01;;;;;;;0.77;0.77;;;21.60;99.90;;;;;;5115195;28;20020;-72
2023/08/18 03:40:27;;;;;;;0.20;0.20;;;21.20;99.90;;;;;;5114438;28;20147;-72
2023/08/18 03:42:53;;;;;;;2.50;1.30;;;20.90;99.90;;;;;;5115156;28;20031;-74
2023/08/18 03:45:19;;;;;;;6.55;1.65;;;20.60;99.90;;;;;;5114924;28;20027;-72
2023/08/18 03:47:45;;;;;;;0.00;0.00;;;20.60;99.90;;;;;;5116256;28;20038;-71
2023/08/18 03:50:13;;;;;;;1.27;0.57;;;20.80;99.90;;;;;;5116089;28;20039;-72
2023/08/18 03:52:39;;;;;;;0.15;0.10;;;20.80;99.90;;;;;;5114880;28;20375;-73
2023/08/18 03:55:05;;;;;;;0.20;0.20;;;20.80;99.90;;;;;;5100279;28;20019;-73
2023/08/18 03:57:31;;;;;;;0.00;0.00;;;21.00;99.90;;;;;;5114794;28;20020;-72
2023/08/18 03:59:57;;;;;;;5.60;2.10;;;21.00;99.90;;;;;;5114585;28;20023;-72
2023/08/18 04:02:23;;;;;;;6.05;1.75;;;20.80;99.90;;;;;;5114588;28;20424;-73
2023/08/18 04:04:49;;;;;;;0.00;0.00;;;20.80;99.90;;;;;;5115468;27;20080;-73
2023/08/18 04:07:15;;;;;;;3.78;1.95;;;20.50;99.90;;;;;;5114048;28;20043;-72
2023/08/18 04:09:40;;;;;;;1.95;0.88;;;20.50;99.90;;;;;;5114180;28;20022;-72
2023/08/18 04:12:06;;;;;;;0.85;0.57;;;20.40;99.90;;;;;;5116018;28;20535;-72
2023/08/18 04:14:33;;;;;;;1.30;1.20;;;20.50;99.90;;;;;;5115574;28;20101;-72
2023/08/18 04:16:59;;;;;;;0.00;0.00;;;20.70;99.90;;;;;;5099967;28;20052;-73
2023/08/18 04:19:25;;;;;;;1.10;1.00;;;20.70;99.90;;;;;;5114213;28;20024;-72
2023/08/18 04:21:50;;;;;;;0.22;0.22;;;20.80;99.90;;;;;;5115682;28;20020;-71
2023/08/18 04:24:16;;;;;;;1.42;1.33;;;20.70;99.90;;;;;;5113915;28;20468;-76
2023/08/18 04:26:42;;;;;;;8.70;4.20;;;20.60;99.90;;;;;;5114167;28;20035;-72
2023/08/18 04:29:09;;;;;;;0.60;0.60;;;20.20;99.90;;;;;;5114374;28;20515;-72
2023/08/18 04:31:35;;;;;;;5.07;1.00;;;20.10;99.90;;;;;;5113981;28;20123;-73
2023/08/18 04:34:09;;;;;;;1.85;1.17;;;20.40;99.90;;;;;;5097837;28;20467;-72
2023/08/18 04:36:37;;;;;;;0.90;0.90;;;20.50;99.90;;;;;;5113794;28;20024;-74
2023/08/18 04:39:04;;;;;;;0.73;0.73;;;20.40;99.90;;;;;;5113580;28;20027;-72
2023/08/18 04:41:32;;;;;;;3.97;1.95;;;20.40;99.90;;;;;;5113884;28;20028;-72
2023/08/18 04:43:57;;;;;;;0.60;0.60;;;20.30;99.90;;;;;;5112991;28;20027;-72
2023/08/18 04:46:26;;;;;;;0.00;0.00;;;20.60;99.90;;;;;;5113326;28;20028;-76
2023/08/18 04:48:57;;;;;;;2.88;2.67;;;20.60;99.90;;;;;;5113595;28;20368;-72
2023/08/18 04:51:23;;;;;;;0.47;0.47;;;20.40;99.90;;;;;;5112827;28;20080;-74
2023/08/18 04:53:49;;;;;;;3.00;2.72;;;20.30;99.90;;;;;;5113221;28;20066;-76
2023/08/18 04:56:15;;;;;;;0.85;0.65;;;20.30;99.90;;;;;;5113342;28;20028;-73
2023/08/18 04:58:41;;;;;;;0.28;0.28;;;20.40;99.90;;;;;;5113351;28;20024;-72
2023/08/18 05:01:08;;;;;;;0.73;0.52;;;20.50;99.90;;;;;;5105692;28;20024;-72
2023/08/18 05:03:34;;;;;;;0.93;0.88;;;20.50;99.90;;;;;;5092021;28;20495;-72
2023/08/18 05:06:03;;;;;;;1.77;0.52;;;20.70;99.90;;;;;;5093978;28;20036;-72
2023/08/18 05:08:30;;;;;;;0.95;0.90;;;20.40;99.90;;;;;;5092364;28;20020;-72
2023/08/18 05:11:07;;;;;;;1.85;1.45;;;20.20;99.90;;;;;;5094179;28;20024;-72
2023/08/18 05:13:36;;;;;;;2.40;2.10;;;20.20;99.90;;;;;;5093929;28;20549;-72
2023/08/18 05:16:03;;;;;;;19.00;11.15;;;20.10;99.90;;;;;;5093789;28;20114;-75
2023/08/18 05:18:29;;;;;;;1.30;1.23;;;19.90;99.90;;;;;;5106774;28;20103;-73
2023/08/18 05:20:56;;;;;;;0.93;0.93;;;20.00;99.90;;;;;;5114381;28;20110;-72
2023/08/18 05:23:22;;;;;;;1.55;0.90;;;20.20;99.90;;;;;;5114234;28;20103;-72
2023/08/18 05:25:48;;;;;;;0.32;0.30;;;20.10;99.90;;;;;;5114333;28;20020;-73
2023/08/18 05:28:17;;;;;;;0.10;0.10;;;20.30;99.90;;;;;;5114093;28;20032;-72
2023/08/18 05:30:47;;;;;;;1.20;0.77;;;20.50;99.90;;;;;;5103487;28;20472;-73
2023/08/18 05:33:13;;;;;;;2.88;0.98;;;20.60;99.90;;;;;;5107749;28;20019;-74
2023/08/18 05:35:38;;;;;;;3.25;3.05;;;20.70;99.90;;;;;;5097892;28;20046;-73
2023/08/18 05:38:10;;;;;;;3.63;0.85;;;20.50;99.90;;;;;;5099071;28;20070;-72
2023/08/18 05:40:49;;;;;;;8.85;4.25;;;20.50;99.90;;;;;;5108361;28;20043;-74
2023/08/18 05:43:16;;;;;;;3.20;1.50;;;20.80;99.90;;;;;;5092974;28;20085;-73
2023/08/18 05:45:44;;;;;;;1.45;1.35;;;20.80;99.90;;;;;;5101164;28;20061;-73
2023/08/18 05:48:10;;;;;;;0.90;0.82;;;20.80;99.90;;;;;;5104295;28;20043;-72
2023/08/18 05:50:36;;;;;;;4.70;3.13;;;20.70;99.90;;;;;;5109558;28;20019;-72
2023/08/18 05:53:03;;;;;;;5.95;2.03;;;20.50;99.90;;;;;;5104192;28;20028;-72
2023/08/18 05:55:29;;;;;;;4.30;1.70;;;20.20;99.90;;;;;;5107868;28;20412;-73
2023/08/18 05:57:57;;;;;;;3.60;2.58;;;20.10;99.90;;;;;;5106824;28;20027;-73
2023/08/18 06:00:23;;;;;;;4.15;0.93;;;20.10;99.90;;;;;;5106720;28;20055;-72
2023/08/18 06:02:49;;;;;;;4.55;3.03;;;20.10;99.90;;;;;;5108684;28;20491;-72
2023/08/18 06:05:15;;;;;;;3.45;2.20;;;20.20;99.90;;;;;;5098905;28;20054;-72
2023/08/18 06:07:41;;;;;;;12.55;7.88;;;20.10;99.90;;;;;;5099649;28;20255;-72
2023/08/18 06:10:08;;;;;;;3.25;2.72;;;20.10;99.90;;;;;;5100799;28;20016;-73
2023/08/18 06:12:34;;;;;;;3.28;2.25;;;20.10;99.90;;;;;;5107758;28;20032;-72
2023/08/18 06:15:00;;;;;;;0.85;0.85;;;20.00;99.90;;;;;;5106237;28;20166;-74
2023/08/18 06:17:26;;;;;;;10.65;4.60;;;20.10;99.90;;;;;;5102330;28;20049;-73
2023/08/18 06:19:52;;;;;;;7.18;4.80;;;20.10;99.90;;;;;;5106755;28;20123;-73
2023/08/18 06:22:18;;;;;;;8.18;2.08;;;20.20;99.90;;;;;;5101506;28;20019;-74
2023/08/18 06:24:44;;;;;;;1.33;1.20;;;20.50;99.90;;;;;;5090959;28;20078;-73
2023/08/18 06:27:10;;;;;;;6.20;3.75;;;20.50;99.90;;;;;;5105256;28;20027;-73
2023/08/18 06:29:38;;;;;;;3.60;2.38;;;20.70;99.90;;;;;;5104416;28;20387;-72
2023/08/18 06:32:04;;;;;;;3.10;2.88;;;20.70;99.90;;;;;;5103495;28;20103;-73
2023/08/18 06:34:30;;;;;;;2.47;2.28;;;20.50;99.90;;;;;;5097518;28;20035;-74
2023/08/18 06:36:56;;;;;;;10.02;1.42;;;20.60;99.90;;;;;;5102119;28;20032;-75
2023/08/18 06:39:22;;;;;;;6.18;2.88;;;20.60;99.90;;;;;;5092134;28;20024;-72
2023/08/18 06:41:48;;;;;;;9.88;4.07;;;20.50;99.90;;;;;;5092040;28;20460;-75
2023/08/18 06:44:13;;;;;;;1.08;1.02;;;20.60;99.90;;;;;;5091329;28;20103;-73
2023/08/18 06:46:39;;;;;;;2.30;2.10;;;20.80;99.90;;;;;;5093532;28;20123;-73
2023/08/18 06:49:05;;;;;;;1.85;1.75;;;20.70;99.90;;;;;;5091528;28;20028;-73
2023/08/18 06:51:31;;;;;;;4.38;1.73;;;20.70;99.90;;;;;;5095638;28;20693;-76
2023/08/18 06:53:56;;;;;;;3.85;2.53;;;20.70;99.90;;;;;;5096205;28;20026;-74
2023/08/18 06:56:22;;;;;;;5.38;1.77;;;20.70;99.90;;;;;;5098129;28;20032;-73
2023/08/18 06:58:48;;;;;;;15.15;2.33;;;20.90;99.90;;;;;;5092908;28;20434;-73
2023/08/18 07:01:14;;;;;;;2.17;1.45;;;21.00;99.90;;;;;;5097357;28;20047;-74
2023/08/18 07:03:39;;;;;;;4.05;1.70;;;20.80;99.90;;;;;;5095044;28;20032;-73
2023/08/18 07:06:05;;;;;;;2.08;1.23;;;20.70;99.90;;;;;;5095690;28;20468;-74
2023/08/18 07:08:32;;;;;;;1.00;0.95;;;20.60;99.90;;;;;;5096605;28;20059;-73
2023/08/18 07:10:58;;;;;;;0.75;0.75;;;20.70;99.90;;;;;;5097413;28;20112;-74
2023/08/18 07:13:24;;;;;;;1.67;1.58;;;20.60;99.90;;;;;;5095798;28;20068;-74
2023/08/18 07:15:50;;;;;;;2.85;1.83;;;20.80;99.90;;;;;;5107070;28;20016;-74
2023/08/18 07:18:17;;;;;;;3.13;1.67;;;20.80;99.90;;;;;;5115149;28;20485;-75
2023/08/18 07:20:44;;;;;;;8.00;3.40;;;20.80;99.90;;;;;;5112572;28;20054;-79
2023/08/18 07:23:10;;;;;;;0.85;0.85;;;20.90;99.90;;;;;;5110722;28;20016;-74
2023/08/18 07:25:37;;;;;;;2.03;1.05;;;21.00;99.90;;;;;;5108059;27;20031;-74
2023/08/18 07:28:04;;;;;;;2.03;1.17;;;21.10;99.90;;;;;;5109003;28;20161;-73
2023/08/18 07:30:30;;;;;;;5.20;2.08;;;20.90;99.90;;;;;;5099054;28;20031;-75
2023/08/18 07:32:56;;;;;;;7.68;3.10;;;21.00;99.90;;;;;;5099059;28;20032;-72
2023/08/18 07:35:23;;;;;;;1.15;0.80;;;21.00;99.90;;;;;;5097968;28;20031;-74
2023/08/18 07:37:49;;;;;;;2.70;2.30;;;21.10;99.90;;;;;;5097594;28;20020;-75
2023/08/18 07:40:15;;;;;;;1.35;1.27;;;21.10;99.90;;;;;;5104774;28;20035;-73
2023/08/18 07:42:41;;;;;;;2.92;1.92;;;21.30;99.90;;;;;;5095892;28;20369;-73
2023/08/18 07:45:07;;;;;;;2.47;2.28;;;21.30;99.90;;;;;;5099448;28;20025;-72
2023/08/18 07:47:34;;;;;;;3.67;1.20;;;21.60;99.90;;;;;;5096601;28;20426;-73
2023/08/18 07:50:00;;;;;;;5.30;2.05;;;21.40;99.90;;;;;;5102894;28;20102;-74
2023/08/18 07:52:25;;;;;;;6.38;1.70;;;21.50;99.90;;;;;;5111551;28;20448;-73
2023/08/18 07:54:51;;;;;;;0.65;0.65;;;21.40;99.90;;;;;;5112805;28;20387;-76
2023/08/18 07:57:17;;;;;;;10.88;1.38;;;21.30;99.90;;;;;;5103361;28;20036;-79
2023/08/18 07:59:43;;;;;;;1.85;0.95;;;21.40;99.90;;;;;;5097051;28;20027;-73
2023/08/18 08:02:08;;;;;;;3.30;1.27;;;21.70;99.90;;;;;;5104659;28;20069;-73
2023/08/18 08:04:34;;;;;;;0.55;0.55;;;21.70;99.90;;;;;;5098727;28;20032;-74
2023/08/18 08:07:00;;;;;;;2.40;2.20;;;21.50;99.90;;;;;;5097050;28;20112;-74
2023/08/18 08:09:26;;;;;;;1.98;1.45;;;21.40;99.90;;;;;;5109497;28;20023;-73
2023/08/18 08:11:53;;;;;;;1.65;1.55;;;21.60;99.90;;;;;;5098186;28;20039;-73
2023/08/18 08:14:19;;;;;;;1.45;1.35;;;21.80;99.90;;;;;;5109812;28;20084;-74
2023/08/18 08:16:45;;;;;;;7.10;5.20;;;21.90;99.90;;;;;;5103508;28;20112;-73
2023/08/18 08:19:13;;;;;;;2.45;0.45;;;21.70;99.90;;;;;;5113000;28;20110;-73
2023/08/18 08:21:40;;;;;;;2.10;1.55;;;21.80;99.90;;;;;;5103345;28;20380;-73
2023/08/18 08:24:06;;;;;;;0.43;0.43;;;21.90;99.90;;;;;;5106363;28;20032;-73
2023/08/18 08:26:33;;;;;;;3.50;1.15;;;21.80;99.90;;;;;;5095963;28;20147;-77
2023/08/18 08:28:59;;;;;;;2.97;2.58;;;21.90;99.90;;;;;;5104205;28;20036;-73
2023/08/18 08:31:24;;;;;;;0.10;0.10;;;21.80;99.90;;;;;;5094065;28;20028;-73
2023/08/18 08:33:50;;;;;;;3.58;1.77;;;21.70;99.90;;;;;;5093466;28;20024;-73
2023/08/18 08:36:16;;;;;;;4.93;0.52;;;21.70;99.90;;;;;;5094614;28;20384;-73
2023/08/18 08:38:42;;;;;;;5.28;3.70;;;21.90;99.90;;;;;;5098073;28;20074;-72
2023/08/18 08:41:09;;;;;;;8.48;1.35;;;22.00;99.90;;;;;;5089158;28;20028;-73
2023/08/18 08:43:35;;;;;;;2.15;1.77;;;22.00;99.90;;;;;;5092786;28;20032;-73
2023/08/18 08:46:01;;;;;;;1.00;1.00;;;22.20;99.90;;;;;;5092800;28;20016;-73
2023/08/18 08:48:34;;;;;;;4.45;3.88;;;22.50;99.90;;;;;;5094100;28;20036;-75
2023/08/18 08:51:04;;;;;;;9.77;4.63;;;22.40;99.90;;;;;;5085249;28;20021;-74
2023/08/18 08:53:39;;;;;;;4.32;3.08;;;22.00;99.90;;;;;;5096456;28;20477;-74
2023/08/18 08:56:07;;;;;;;2.05;1.10;;;21.90;99.90;;;;;;5101152;28;20023;-75
2023/08/18 08:58:34;;;;;;;0.10;0.10;;;21.90;99.90;;;;;;5094068;28;20106;-74
2023/08/18 09:01:01;;;;;;;0.63;0.63;;;22.00;99.90;;;;;;5095745;28;20051;-74
2023/08/18 09:03:30;;;;;;;0.98;0.98;;;22.00;99.90;;;;;;5095008;28;20050;-74
2023/08/18 09:05:56;;;;;;;1.98;1.52;;;22.50;99.90;;;;;;5094619;28;20035;-74
2023/08/18 09:08:22;;;;;;;3.72;1.52;;;22.20;99.90;;;;;;5093271;28;20127;-74
2023/08/18 09:10:48;;;;;;;5.07;3.08;;;21.90;99.90;;;;;;5098094;28;20027;-73
2023/08/18 09:13:14;;;;;;;7.60;4.63;;;21.90;99.90;;;;;;5094391;28;20035;-73
2023/08/18 09:15:47;;;;;;;3.92;2.38;;;21.70;99.90;;;;;;5096576;28;20028;-74
2023/08/18 09:18:14;;;;;;;0.88;0.57;;;21.50;99.90;;;;;;5097428;28;20024;-74
2023/08/18 09:20:43;;;;;;;0.55;0.55;;;21.70;99.90;;;;;;5094559;28;20020;-74
2023/08/18 09:23:09;;;;;;;3.22;1.42;;;22.10;99.90;;;;;;5100160;28;20034;-76
2023/08/18 09:25:35;;;;;;;3.45;0.73;;;22.40;99.90;;;;;;5098241;28;20028;-74
2023/08/18 09:28:03;;;;;;;1.75;1.63;;;22.40;99.90;;;;;;5093054;28;20035;-75
2023/08/18 09:30:31;;;;;;;8.55;2.83;;;22.90;99.90;;;;;;5097086;28;20504;-74
2023/08/18 09:32:59;;;;;;;4.32;3.33;;;23.00;99.90;;;;;;5097963;28;20028;-75
2023/08/18 09:35:25;;;;;;;3.05;1.88;;;22.70;99.90;;;;;;5101757;28;20024;-74
2023/08/18 09:37:57;;;;;;;3.85;2.45;;;22.50;99.90;;;;;;5091264;28;20415;-73
2023/08/18 09:40:24;;;;;;;5.18;2.35;;;22.30;99.90;;;;;;5096348;28;20031;-75
2023/08/18 09:42:50;;;;;;;3.05;2.55;;;22.60;99.90;;;;;;5093585;28;20468;-74
2023/08/18 09:45:17;;;;;;;0.65;0.65;;;22.90;99.90;;;;;;5100629;28;20155;-74
2023/08/18 09:47:47;;;;;;;0.55;0.55;;;23.30;99.90;;;;;;5102387;28;20092;-74
2023/08/18 09:50:14;;;;;;;1.52;0.68;;;23.90;99.90;;;;;;5090380;28;20048;-74
2023/08/18 09:52:42;;;;;;;0.63;0.63;;;23.70;99.90;;;;;;5094861;28;20032;-74
2023/08/18 09:55:13;;;;;;;5.70;2.42;;;23.50;99.90;;;;;;5093415;28;20031;-73
2023/08/18 09:57:58;;;;;;;11.35;4.63;;;23.60;99.90;;;;;;5099943;28;20031;-74
2023/08/18 10:00:25;;;;;;;5.05;2.80;;;23.20;99.90;;;;;;5096937;28;20035;-74
2023/08/18 10:02:55;;;;;;;0.57;0.57;;;23.00;99.90;;;;;;5096045;28;20057;-73
2023/08/18 10:05:22;;;;;;;6.60;4.55;;;23.10;99.90;;;;;;5100413;28;20169;-73
2023/08/18 10:07:49;;;;;;;4.32;2.85;;;23.40;99.90;;;;;;5099232;28;20044;-73
2023/08/18 10:10:17;;;;;;;3.35;2.42;;;23.70;99.90;;;;;;5097958;28;20024;-73
2023/08/18 10:12:44;;;;;;;7.32;4.63;;;24.30;99.90;;;;;;5091655;28;20391;-73
2023/08/18 10:15:11;;;;;;;5.00;3.20;;;24.00;99.90;;;;;;5092394;28;20020;-73
2023/08/18 10:17:37;;;;;;;1.85;1.73;;;23.50;99.90;;;;;;5083305;28;20028;-77
2023/08/18 10:20:04;;;;;;;1.63;1.52;;;23.50;99.90;;;;;;5090481;28;20375;-72
2023/08/18 10:22:33;;;;;;;2.70;1.33;;;23.60;99.90;;;;;;5091060;28;20377;-72
2023/08/18 10:24:59;;;;;;;1.52;1.40;;;23.80;99.90;;;;;;5097871;28;20487;-74
2023/08/18 10:27:28;;;;;;;5.60;3.10;;;24.30;99.90;;;;;;5090326;28;20066;-75
2023/08/18 10:30:10;;;;;;;16.17;6.20;;;24.70;99.90;;;;;;5079947;28;20373;-73
2023/08/18 10:32:36;;;;;;;;;;;24.70;99.90;;;;;;5094886;28;20046;-73
2023/08/18 10:35:22;;;;;;;1.13;1.02;;;24.80;99.90;;;;;;5096484;28;19916;-86
2023/08/18 10:37:49;;;;;;;6.40;1.83;;;24.90;99.90;;;;;;5099080;28;20055;-73
2023/08/18 10:40:23;;;;;;;9.15;2.88;;;25.70;99.90;;;;;;5103354;28;20016;-83
2023/08/18 10:42:56;;;;;;;2.97;2.67;;;25.60;99.90;;;;;;5097061;28;20103;-72
2023/08/18 10:45:27;;;;;;;0.63;0.63;;;25.60;99.90;;;;;;5086185;28;20044;-72
2023/08/18 10:47:53;;;;;;;3.80;1.88;;;25.40;99.90;;;;;;5085072;28;20043;-74
2023/08/18 10:50:20;;;;;;;1.65;1.55;;;25.90;99.90;;;;;;5080465;28;20031;-73
2023/08/18 10:52:45;;;;;;;5.75;2.88;;;26.20;99.90;;;;;;5083223;28;20027;-72
2023/08/18 10:55:11;;;;;;;17.00;1.52;;;26.10;99.90;;;;;;5092219;28;20020;-72
2023/08/18 10:57:37;;;;;;;1.20;1.10;;;25.30;99.90;;;;;;5095601;28;20044;-74
2023/08/18 11:00:11;;;;;;;5.10;3.47;;;25.10;99.90;;;;;;5090788;28;20016;-73
2023/08/18 11:02:38;;;;;;;5.40;2.05;;;25.50;99.90;;;;;;5096154;28;20060;-73
2023/08/18 11:05:05;;;;;;;2.92;1.10;;;25.90;99.90;;;;;;5091110;28;20027;-74
2023/08/18 11:07:31;;;;;;;0.00;0.00;;;26.80;99.90;;;;;;5090015;28;20111;-73
2023/08/18 11:09:57;;;;;;;5.63;2.50;;;27.20;99.90;;;;;;5096071;28;20078;-72
2023/08/18 11:12:23;;;;;;;14.95;5.53;;;26.80;99.90;;;;;;5089465;28;20480;-72
2023/08/18 11:14:49;;;;;;;0.45;0.43;;;26.30;99.90;;;;;;5092372;28;20069;-76
2023/08/18 11:17:15;;;;;;;2.75;1.40;;;26.60;99.90;;;;;;5092313;28;20062;-72
2023/08/18 11:19:41;;;;;;;5.97;2.67;;;26.40;99.90;;;;;;5092396;28;20052;-73
2023/08/18 11:22:07;;;;;;;5.07;2.83;;;26.20;99.90;;;;;;5092233;28;20467;-72
2023/08/18 11:24:34;;;;;;;4.70;1.38;;;25.60;99.90;;;;;;5091461;28;20103;-72
2023/08/18 11:27:01;;;;;;;0.63;0.63;;;25.80;99.90;;;;;;5092103;28;20472;-72
2023/08/18 11:29:27;;;;;;;6.78;4.00;;;26.40;99.90;;;;;;5092323;28;20016;-72
2023/08/18 11:31:53;;;;;;;13.10;4.82;;;26.20;99.90;;;;;;5091669;28;20028;-72
2023/08/18 11:34:20;;;;;;;12.25;4.63;;;25.70;99.90;;;;;;5092353;28;20023;-72
2023/08/18 11:36:46;;;;;;;3.10;2.03;;;25.50;99.90;;;;;;5091940;28;20476;-73
2023/08/18 11:39:12;;;;;;;2.90;1.67;;;25.20;99.90;;;;;;5092104;28;20031;-76
2023/08/18 11:41:43;;;;;;;19.13;8.27;;;25.90;99.90;;;;;;5084879;28;20028;-72
2023/08/18 11:44:10;;;;;;;6.30;2.05;;;25.60;99.90;;;;;;5086829;28;20476;-72
2023/08/18 11:46:37;;;;;;;3.42;2.65;;;25.90;99.90;;;;;;5103386;28;20037;-72
2023/08/18 11:49:14;;;;;;;6.28;2.55;;;26.50;99.90;;;;;;5091871;28;20132;-72
2023/08/18 11:52:05;;;;;;;9.18;4.30;;;26.20;99.90;;;;;;5092082;28;20035;-75
2023/08/18 11:54:36;;;;;;;17.67;6.90;;;26.40;99.90;;;;;;5094289;28;20032;-72
2023/08/18 11:57:04;;;;;;;3.30;1.35;;;26.00;99.90;;;;;;5095532;28;20028;-77
2023/08/18 11:59:30;;;;;;;1.65;1.55;;;26.30;99.90;;;;;;5095778;28;20109;-74
2023/08/18 12:02:00;;;;;;;1.75;1.65;;;27.00;99.90;;;;;;5094288;28;20058;-72
2023/08/18 12:04:28;;;;;;;4.82;1.67;;;27.30;99.90;;;;;;5095660;28;20043;-74
2023/08/18 12:06:54;;;;;;;11.15;7.05;;;27.50;99.90;;;;;;5095259;28;20020;-72
2023/08/18 12:09:21;;;;;;;5.95;4.38;;;27.30;99.90;;;;;;5095223;28;20032;-73
2023/08/18 12:11:48;;;;;;;4.13;2.85;;;28.00;99.90;;;;;;5095392;28;20089;-72
2023/08/18 12:14:14;;;;;;;0.93;0.93;;;28.10;99.90;;;;;;5094561;28;20028;-72
2023/08/18 12:16:41;;;;;;;7.95;4.03;;;28.30;99.90;;;;;;5092979;28;20043;-72
2023/08/18 12:19:07;;;;;;;0.28;0.28;;;28.20;99.90;;;;;;5111312;28;20039;-72
2023/08/18 12:21:36;;;;;;;0.85;0.85;;;28.20;99.90;;;;;;5113837;28;20043;-73
2023/08/18 12:24:03;;;;;;;13.10;6.10;;;28.90;99.90;;;;;;5113669;28;20050;-72
2023/08/18 12:26:33;;;;;;;2.72;1.48;;;29.60;99.90;;;;;;5113637;28;20016;-72
2023/08/18 12:29:03;;;;;;;0.68;0.32;;;29.00;99.90;;;;;;5112509;28;20032;-72
2023/08/18 12:31:30;;;;;;;1.73;1.45;;;28.80;99.90;;;;;;5115587;28;20019;-72
2023/08/18 12:33:56;;;;;;;0.60;0.60;;;29.40;99.90;;;;;;5115658;28;20092;-72
2023/08/18 12:36:22;;;;;;;0.52;0.25;;;29.70;99.90;;;;;;5113481;28;20027;-73
2023/08/18 12:38:48;;;;;;;5.55;3.42;;;30.10;99.90;;;;;;5099275;28;20837;-71
2023/08/18 12:41:14;;;;;;;4.43;2.17;;;30.00;99.90;;;;;;5093561;28;20044;-72
2023/08/18 12:43:41;;;;;;;1.38;0.43;;;30.10;99.90;;;;;;5094654;28;20027;-71
2023/08/18 12:46:07;;;;;;;0.10;0.10;;;30.90;99.90;;;;;;5094487;28;20020;-71